createdAt,value
2022-08-02T00:03:24.906Z,80.42
2022-08-02T00:08:27.753Z,81.12
2022-08-02T00:13:29.589Z,81.60
2022-08-02T00:18:31.462Z,82.09
2022-08-02T00:23:33.147Z,82.43
2022-08-02T00:28:54.926Z,82.50
2022-08-02T00:34:05.772Z,82.70
2022-08-02T00:39:35.149Z,82.62
2022-08-02T00:44:38.042Z,82.75
2022-08-02T00:49:39.865Z,82.31
2022-08-02T00:54:41.850Z,82.69
2022-08-02T00:59:43.565Z,82.97
2022-08-02T01:04:45.272Z,82.80
2022-08-02T01:09:46.974Z,82.76
2022-08-02T01:14:51.130Z,82.63
2022-08-02T01:19:55.692Z,83.23
2022-08-02T01:25:31.125Z,83.42
2022-08-02T01:30:35.945Z,83.80
2022-08-02T01:35:50.670Z,83.74
2022-08-02T01:40:55.646Z,83.28
2022-08-02T01:46:00.021Z,83.12
2022-08-02T01:51:03.046Z,83.05
2022-08-02T01:56:07.504Z,82.26
2022-08-02T02:01:16.017Z,82.37
2022-08-02T02:06:22.971Z,82.06
2022-08-02T02:12:11.661Z,81.44
2022-08-02T02:16:48.304Z,81.59
2022-08-02T02:21:50.363Z,81.35
2022-08-02T02:26:52.832Z,82.24
2022-08-02T02:31:55.654Z,82.18
2022-08-02T02:36:59.420Z,82.74
2022-08-02T02:42:04.336Z,82.79
2022-08-02T02:47:07.409Z,82.72
2022-08-02T02:52:10.529Z,83.57
2022-08-02T02:57:13.317Z,83.95
2022-08-02T03:02:15.410Z,84.38
2022-08-02T03:07:17.468Z,84.29
2022-08-02T03:12:19.977Z,83.55
2022-08-02T03:17:21.800Z,82.42
2022-08-02T03:22:23.453Z,82.84
2022-08-02T03:27:25.175Z,83.12
2022-08-02T03:32:27.322Z,83.35
2022-08-02T03:37:30.557Z,83.57
2022-08-02T03:42:32.238Z,82.93
2022-08-02T03:47:34.410Z,82.62
2022-08-02T03:52:36.862Z,83.17
2022-08-02T03:57:40.038Z,83.29
2022-08-02T04:02:41.798Z,82.47
2022-08-02T04:08:33.740Z,82.35
2022-08-02T04:13:05.467Z,81.80
2022-08-02T04:18:08.748Z,82.35
2022-08-02T04:23:13.778Z,82.69
2022-08-02T04:28:18.367Z,83.19
2022-08-02T04:33:20.955Z,83.26
2022-08-02T04:38:22.758Z,83.24
2022-08-02T04:43:24.914Z,83.24
2022-08-02T04:48:26.582Z,83.12
2022-08-02T04:53:28.294Z,82.55
2022-08-02T04:58:45.332Z,82.70
2022-08-02T05:03:47.060Z,84.45
2022-08-02T05:08:53.270Z,84.71
2022-08-02T05:13:57.992Z,84.62
2022-08-02T05:19:02.342Z,84.54
2022-08-02T05:24:05.349Z,84.09
2022-08-02T05:29:07.131Z,83.90
2022-08-02T05:34:11.960Z,84.29
2022-08-02T05:39:19.073Z,84.34
2022-08-02T05:44:21.416Z,84.67
2022-08-02T05:49:23.251Z,84.61
2022-08-02T05:54:44.486Z,84.13
2022-08-02T06:00:06.548Z,83.57
2022-08-02T06:05:17.205Z,84.05
2022-08-02T06:10:21.409Z,83.85
2022-08-02T06:15:23.202Z,83.41
2022-08-02T06:20:27.034Z,83.80
2022-08-02T06:25:49.882Z,83.78
2022-08-02T06:30:51.409Z,83.76
2022-08-02T06:36:19.330Z,83.21
2022-08-02T06:41:24.442Z,83.42
2022-08-02T06:47:08.206Z,82.80
2022-08-02T06:51:48.199Z,82.55
2022-08-02T06:56:49.986Z,81.52
2022-08-02T07:01:51.840Z,82.43
2022-08-02T07:06:53.701Z,81.68
2022-08-02T07:11:55.766Z,81.41
2022-08-02T07:16:58.303Z,81.29
2022-08-02T07:22:02.518Z,80.49
2022-08-02T07:27:12.567Z,80.02
2022-08-02T07:32:16.585Z,79.36
2022-08-02T07:37:35.942Z,79.34
2022-08-02T07:42:40.480Z,79.01
2022-08-02T07:47:43.912Z,79.15
2022-08-02T07:52:46.177Z,78.40
2022-08-02T07:57:47.992Z,78.38
2022-08-02T08:02:49.690Z,77.34
2022-08-02T08:07:52.202Z,77.41
2022-08-02T08:12:55.222Z,77.11
2022-08-02T08:17:57.067Z,76.82
2022-08-02T08:22:59.491Z,75.80
2022-08-02T08:28:01.299Z,76.01
2022-08-02T08:33:03.034Z,75.20
2022-08-02T08:38:07.853Z,73.94
2022-08-02T08:43:13.771Z,72.81
2022-08-02T08:48:21.808Z,72.97
2022-08-02T08:53:39.977Z,70.51
2022-08-02T08:58:45.036Z,69.94
2022-08-02T09:03:47.033Z,68.80
2022-08-02T09:08:48.872Z,66.28
2022-08-02T09:13:58.918Z,63.89
2022-08-02T09:19:16.524Z,64.33
2022-08-02T09:24:23.347Z,63.18
2022-08-02T09:29:26.202Z,63.27
2022-08-02T09:34:43.775Z,60.68
2022-08-02T09:39:47.545Z,60.26
2022-08-02T09:45:00.009Z,59.45
2022-08-02T09:50:01.939Z,58.79
2022-08-02T09:55:06.832Z,57.81
2022-08-02T10:00:15.068Z,58.80
2022-08-02T10:05:21.009Z,58.54
2022-08-02T10:10:24.343Z,59.07
2022-08-02T10:15:27.619Z,56.26
2022-08-02T10:20:32.971Z,56.94
2022-08-02T10:25:38.103Z,57.02
2022-08-02T10:30:43.720Z,57.61
2022-08-02T10:35:50.408Z,56.16
2022-08-02T10:41:08.695Z,56.52
2022-08-02T10:46:29.334Z,55.16
2022-08-02T10:52:02.603Z,55.29
2022-08-02T10:57:15.501Z,54.87
2022-08-02T11:02:47.077Z,54.37
2022-08-02T11:07:50.100Z,53.62
2022-08-02T11:12:58.586Z,54.48
2022-08-02T11:18:00.341Z,53.62
2022-08-02T11:23:44.723Z,52.31
2022-08-02T11:28:50.713Z,52.07
2022-08-02T11:33:53.100Z,50.83
2022-08-02T11:39:15.811Z,52.14
2022-08-02T11:44:18.813Z,50.50
2022-08-02T11:49:25.145Z,50.87
2022-08-02T11:54:32.069Z,50.70
2022-08-02T11:59:39.023Z,50.07
2022-08-02T12:04:41.551Z,49.56
2022-08-02T12:09:45.867Z,48.13
2022-08-02T12:14:47.683Z,48.47
2022-08-02T12:19:49.398Z,48.78
2022-08-02T12:24:53.519Z,49.18
2022-08-02T12:30:16.003Z,47.43
2022-08-02T12:35:26.762Z,45.31
2022-08-02T12:40:32.998Z,46.07
2022-08-02T12:46:01.452Z,45.92
2022-08-02T12:51:24.553Z,45.26
2022-08-02T12:56:33.607Z,45.78
2022-08-02T13:01:36.379Z,45.79
2022-08-02T13:06:45.728Z,45.58
2022-08-02T13:11:47.741Z,45.19
2022-08-02T13:16:49.653Z,43.88
2022-08-02T13:22:01.056Z,44.49
2022-08-02T13:27:05.192Z,43.39
2022-08-02T13:32:10.648Z,43.44
2022-08-02T13:37:12.861Z,43.77
2022-08-02T13:42:16.063Z,43.35
2022-08-02T13:47:26.778Z,44.65
2022-08-02T13:52:38.351Z,44.20
2022-08-02T13:57:40.087Z,42.97
2022-08-02T14:02:43.143Z,41.79
2022-08-02T14:07:45.049Z,42.76
2022-08-02T14:12:46.853Z,42.60
2022-08-02T14:17:58.294Z,40.39
2022-08-02T14:23:00.034Z,39.92
2022-08-02T14:28:02.826Z,40.90
2022-08-02T14:33:04.762Z,39.30
2022-08-02T14:38:06.742Z,40.11
2022-08-02T14:43:08.451Z,39.65
2022-08-02T14:48:11.329Z,40.31
2022-08-02T14:53:13.272Z,40.09
2022-08-02T14:58:14.971Z,40.26
2022-08-02T15:03:16.718Z,41.13
2022-08-02T15:08:18.570Z,42.39
2022-08-02T15:13:20.323Z,42.50
2022-08-02T15:18:22.956Z,41.95
2022-08-02T15:23:38.437Z,40.04
2022-08-02T15:28:40.499Z,41.06
2022-08-02T15:33:44.163Z,41.48
2022-08-02T15:38:45.839Z,40.26
2022-08-02T15:44:01.045Z,41.58
2022-08-02T15:49:03.265Z,40.47
2022-08-02T15:54:05.167Z,39.75
2022-08-02T15:59:06.941Z,39.33
2022-08-02T16:04:09.002Z,39.74
2022-08-02T16:09:10.926Z,40.50
2022-08-02T16:14:12.581Z,39.03
2022-08-02T16:19:47.734Z,39.31
2022-08-02T16:24:36.887Z,39.82
2022-08-02T16:29:38.658Z,39.40
2022-08-02T16:35:07.143Z,39.23
2022-08-02T16:40:02.278Z,39.23
2022-08-02T16:45:04.990Z,37.93
2022-08-02T16:50:10.543Z,38.53
2022-08-02T16:55:12.428Z,39.00
2022-08-02T17:00:15.511Z,40.32
2022-08-02T17:05:17.938Z,40.81
2022-08-02T17:10:19.681Z,40.56
2022-08-02T17:16:16.373Z,40.87
2022-08-02T17:20:44.934Z,41.44
2022-08-02T17:25:52.360Z,42.34
2022-08-02T17:30:54.198Z,42.14
2022-08-02T17:35:56.375Z,41.47
2022-08-02T17:40:58.759Z,42.22
2022-08-02T17:46:02.396Z,41.40
2022-08-02T17:51:04.570Z,42.97
2022-08-02T17:56:06.382Z,43.42
2022-08-02T18:01:23.469Z,42.49
2022-08-02T18:06:26.142Z,42.60
2022-08-02T18:16:50.792Z,47.51
2022-08-02T18:21:52.732Z,49.17
2022-08-02T18:26:56.699Z,50.74
2022-08-02T18:31:58.569Z,51.88
2022-08-02T18:37:00.217Z,52.74
2022-08-02T18:42:01.993Z,53.94
2022-08-02T18:47:03.819Z,55.11
2022-08-02T18:52:05.919Z,55.93
2022-08-02T18:58:16.652Z,56.31
2022-08-02T19:02:31.206Z,56.65
2022-08-02T19:07:49.827Z,57.34
2022-08-02T19:12:53.172Z,57.94
2022-08-02T19:17:58.077Z,57.91
2022-08-02T19:23:02.819Z,58.68
2022-08-02T19:28:05.444Z,58.73
2022-08-02T19:33:10.615Z,59.61
2022-08-02T19:38:26.810Z,59.64
2022-08-02T19:44:23.106Z,59.95
2022-08-02T19:48:51.559Z,60.38
2022-08-02T19:53:53.301Z,60.56
2022-08-02T19:58:57.677Z,61.17
2022-08-02T20:03:59.674Z,61.61
2022-08-02T20:09:02.283Z,62.09
2022-08-02T20:14:05.242Z,62.96
2022-08-02T20:19:09.989Z,63.32
2022-08-02T20:24:11.949Z,63.54
2022-08-02T20:29:14.001Z,63.77
2022-08-02T20:34:15.813Z,63.94
2022-08-02T20:39:20.325Z,64.12
2022-08-02T20:44:31.021Z,63.61
2022-08-02T20:49:40.841Z,63.43
2022-08-02T20:54:43.693Z,63.38
2022-08-02T20:59:51.974Z,63.61
2022-08-02T21:04:53.841Z,63.39
2022-08-02T21:09:55.530Z,63.51
2022-08-02T21:14:57.377Z,63.74
2022-08-02T21:20:01.507Z,63.59
2022-08-02T21:25:03.502Z,63.71
2022-08-02T21:30:11.529Z,64.05
2022-08-02T21:35:13.453Z,63.93
2022-08-02T21:40:15.422Z,64.01
2022-08-02T21:45:20.145Z,63.84
2022-08-02T21:50:22.107Z,63.57
2022-08-02T21:55:24.027Z,63.64
2022-08-02T22:00:28.565Z,64.10
2022-08-02T22:05:37.221Z,63.38
2022-08-02T22:10:58.007Z,63.51
2022-08-02T22:16:04.278Z,64.07
2022-08-02T22:21:14.236Z,64.33
2022-08-02T22:26:19.611Z,64.46
2022-08-02T22:31:40.577Z,65.08
2022-08-02T22:36:44.530Z,65.46
2022-08-02T22:42:05.381Z,65.64
2022-08-02T22:47:14.609Z,65.85
2022-08-02T22:52:20.192Z,65.74
2022-08-02T22:57:30.361Z,65.88
2022-08-02T22:58:43.501Z,45.35
2022-08-02T23:02:33.296Z,65.98
2022-08-02T23:07:37.004Z,66.35
2022-08-02T23:12:41.019Z,66.41
2022-08-02T23:18:01.476Z,66.55
2022-08-02T23:23:03.256Z,66.91
2022-08-02T23:28:13.438Z,66.40
2022-08-02T23:33:15.205Z,67.22
2022-08-02T23:38:17.198Z,67.60
2022-08-02T23:43:18.901Z,67.86
2022-08-02T23:48:20.917Z,68.10
2022-08-02T23:53:22.630Z,68.70
2022-08-02T23:58:24.544Z,67.64
